Orbital elements of FENGYUN 1C DEB
| Launched | 9 May 1999 |
| Flight ended | – |
| Launch site | Taiyuan Space Center, PRC |
| Owner | People's Republic of China |
| NORAD ID | 30721 |
| Date fetched |
Epoch osculation |
Inc. [°] |
Ecc. | RA asc node [hr] |
Arg Peri. [°] |
Mean anom [°] |
Mean motion [rev/day] |
Abs. mag |
| Date fetched |
Epoch osculation |
Inc. [°] |
Ecc. | RA asc node [hr] |
Arg Peri. [°] |
Mean anom [°] |
Mean motion [rev/day] |
Abs. mag |
| 2026 May 03 17:57 | 2026 Apr 30 09:10:35 | 98.7158 | 0.00239 | 17.8236 | 260.9586 | 153.2874 | 14.79236 | – |
| 2026 May 02 17:57 | 2026 Apr 30 09:10:35 | 98.7158 | 0.00239 | 17.8236 | 260.9586 | 153.2874 | 14.79236 | – |
| 2026 May 01 17:56 | 2026 Apr 30 09:10:35 | 98.7158 | 0.00239 | 17.8236 | 260.9586 | 153.2874 | 14.79236 | – |
| 2026 Apr 30 17:56 | 2026 Apr 30 09:10:35 | 98.7158 | 0.00239 | 17.8236 | 260.9586 | 153.2874 | 14.79236 | – |
| 2026 Apr 29 17:57 | 2026 Apr 24 08:34:08 | 98.7156 | 0.00235 | 17.3884 | 279.7725 | 153.2874 | 14.79236 | – |
| 2026 Apr 28 17:56 | 2026 Apr 24 08:34:08 | 98.7156 | 0.00235 | 17.3884 | 279.7725 | 153.2874 | 14.79236 | – |
| 2026 Apr 27 17:58 | 2026 Apr 24 08:34:08 | 98.7156 | 0.00235 | 17.3884 | 279.7725 | 153.2874 | 14.79236 | – |
| 2026 Apr 26 17:58 | 2026 Apr 24 08:34:08 | 98.7156 | 0.00235 | 17.3884 | 279.7725 | 153.2874 | 14.79236 | – |
| 2026 Apr 25 17:58 | 2026 Apr 24 08:34:08 | 98.7156 | 0.00235 | 17.3884 | 279.7725 | 153.2874 | 14.79236 | – |
| 2026 Apr 24 17:59 | 2026 Apr 24 08:34:08 | 98.7156 | 0.00235 | 17.3884 | 279.7725 | 153.2874 | 14.79236 | – |
| 2026 Apr 23 17:57 | 2026 Apr 19 04:12:12 | 98.7155 | 0.00232 | 17.0143 | 296.7106 | 153.2874 | 14.79236 | – |
| 2026 Apr 22 17:57 | 2026 Apr 19 04:12:12 | 98.7155 | 0.00232 | 17.0143 | 296.7106 | 153.2874 | 14.79236 | – |
| 2026 Apr 21 17:57 | 2026 Apr 19 04:12:12 | 98.7155 | 0.00232 | 17.0143 | 296.7106 | 153.2874 | 14.79236 | – |
| 2026 Apr 20 17:57 | 2026 Apr 19 04:12:12 | 98.7155 | 0.00232 | 17.0143 | 296.7106 | 153.2874 | 14.79236 | – |
| 2026 Apr 19 17:58 | 2026 Apr 19 04:12:12 | 98.7155 | 0.00232 | 17.0143 | 296.7106 | 153.2874 | 14.79236 | – |
| 2026 Apr 18 17:56 | 2026 Apr 13 03:06:26 | 98.7137 | 0.00231 | 16.5781 | 316.9715 | 153.2874 | 14.79236 | – |
| 2026 Apr 16 17:57 | 2026 Apr 13 03:06:26 | 98.7137 | 0.00231 | 16.5781 | 316.9715 | 153.2874 | 14.79236 | – |
| 2026 Apr 14 17:57 | 2026 Apr 13 03:06:26 | 98.7137 | 0.00231 | 16.5781 | 316.9715 | 153.2874 | 14.79236 | – |
| 2026 Apr 13 17:57 | 2026 Apr 13 03:06:26 | 98.7137 | 0.00231 | 16.5781 | 316.9715 | 153.2874 | 14.79236 | – |
| 2026 Apr 12 17:57 | 2026 Apr 08 02:55:03 | 98.7142 | 0.00230 | 16.2168 | 333.7340 | 153.2874 | 14.79236 | – |
| 2026 Apr 11 17:57 | 2026 Apr 08 02:55:03 | 98.7142 | 0.00230 | 16.2168 | 333.7340 | 153.2874 | 14.79236 | – |
| 2026 Apr 10 17:58 | 2026 Apr 08 02:55:03 | 98.7142 | 0.00230 | 16.2168 | 333.7340 | 153.2874 | 14.79236 | – |
| 2026 Apr 09 18:01 | 2026 Apr 08 02:55:03 | 98.7142 | 0.00230 | 16.2168 | 333.7340 | 153.2874 | 14.79236 | – |
| 2026 Apr 08 17:57 | 2026 Apr 08 02:55:03 | 98.7142 | 0.00230 | 16.2168 | 333.7340 | 153.2874 | 14.79236 | – |
| 2026 Apr 07 17:57 | 2026 Apr 02 04:30:11 | 98.7137 | 0.00227 | 15.7890 | 353.8520 | 153.2874 | 14.79236 | – |
| 2026 Apr 06 17:57 | 2026 Apr 02 04:30:11 | 98.7137 | 0.00227 | 15.7890 | 353.8520 | 153.2874 | 14.79236 | – |